Time;durP1;ratioP1;P1;durP2;ratioP2;P2;SDS_P1;SDS_P2;PMS_P1;PMS_P2;Temp;Humidity;BMP_temperature;BMP_pressure;BME280_temperature;BME280_humidity;BME280_pressure;Samples;Min_cycle;Max_cycle;Signal;HPM_P1;HPM_P2
2021/09/05 00:00:35;;;;;;;45.07;35.23;;;11.70;99.90;;;;;;4971195;28;20235;-49
2021/09/05 00:03:01;;;;;;;40.03;35.73;;;11.70;99.90;;;;;;4972347;28;20773;-51
2021/09/05 00:05:28;;;;;;;44.33;35.43;;;11.60;99.90;;;;;;4971231;28;20220;-52
2021/09/05 00:07:54;;;;;;;41.37;34.43;;;11.60;99.90;;;;;;4972215;28;20584;-51
2021/09/05 00:10:19;;;;;;;39.80;35.03;;;11.60;99.90;;;;;;4970493;28;20474;-52
2021/09/05 00:12:45;;;;;;;43.27;35.57;;;11.50;99.90;;;;;;4971116;28;20661;-51
2021/09/05 00:15:11;;;;;;;43.90;35.40;;;11.60;99.90;;;;;;4970060;28;20211;-51
2021/09/05 00:17:37;;;;;;;46.30;35.77;;;11.60;99.90;;;;;;4970841;28;20192;-53
2021/09/05 00:20:04;;;;;;;48.00;36.80;;;11.70;99.90;;;;;;4969757;28;20181;-48
2021/09/05 00:22:30;;;;;;;45.17;36.30;;;11.70;99.90;;;;;;4973862;28;20742;-49
2021/09/05 00:24:55;;;;;;;50.40;37.40;;;11.70;99.90;;;;;;4970298;28;20450;-53
2021/09/05 00:27:21;;;;;;;52.50;40.27;;;11.70;99.90;;;;;;4971173;28;20553;-51
2021/09/05 00:29:46;;;;;;;54.53;39.93;;;11.80;99.90;;;;;;4969290;28;20209;-50
2021/09/05 00:32:12;;;;;;;59.67;39.73;;;11.80;99.90;;;;;;4970466;28;20269;-51
2021/09/05 00:34:37;;;;;;;58.57;41.70;;;11.80;99.90;;;;;;4970893;28;20185;-49
2021/09/05 00:37:03;;;;;;;59.37;40.27;;;11.70;99.90;;;;;;4969086;28;20185;-51
2021/09/05 00:39:29;;;;;;;58.30;39.30;;;11.70;99.90;;;;;;4970689;28;20185;-52
2021/09/05 00:41:54;;;;;;;61.83;40.83;;;11.70;99.90;;;;;;4971308;28;20225;-53
2021/09/05 00:44:20;;;;;;;53.77;38.33;;;11.80;99.90;;;;;;4969457;28;20204;-48
2021/09/05 00:46:46;;;;;;;58.30;41.50;;;11.80;99.90;;;;;;4971079;28;20244;-49
2021/09/05 00:49:11;;;;;;;68.93;43.10;;;11.90;99.90;;;;;;4968921;28;20204;-53
2021/09/05 00:51:40;;;;;;;61.23;40.67;;;12.00;99.90;;;;;;4971509;28;20272;-52
2021/09/05 00:54:08;;;;;;;67.23;42.70;;;11.90;99.90;;;;;;4970486;28;20667;-52
2021/09/05 00:56:36;;;;;;;60.07;40.17;;;12.00;99.90;;;;;;4970017;28;20967;-52
2021/09/05 00:59:07;;;;;;;62.37;40.70;;;12.00;99.90;;;;;;4970232;28;20440;-53
2021/09/05 01:01:36;;;;;;;58.70;41.47;;;12.00;99.90;;;;;;4969815;28;21295;-49
2021/09/05 01:04:03;;;;;;;67.80;42.87;;;12.10;99.90;;;;;;4970429;28;20550;-52
2021/09/05 01:06:29;;;;;;;64.43;40.73;;;12.10;99.90;;;;;;4970517;28;20432;-49
2021/09/05 01:08:57;;;;;;;67.60;41.73;;;12.10;99.90;;;;;;4970345;28;20819;-52
2021/09/05 01:11:23;;;;;;;68.40;44.07;;;12.20;99.90;;;;;;4971038;28;20895;-47
2021/09/05 01:13:50;;;;;;;67.57;41.67;;;12.30;99.90;;;;;;4969629;28;20436;-53
2021/09/05 01:16:30;;;;;;;63.50;40.60;;;12.30;99.90;;;;;;4959776;28;20431;-50
2021/09/05 01:19:03;;;;;;;69.30;41.77;;;12.40;99.90;;;;;;4970128;28;20440;-52
2021/09/05 01:21:29;;;;;;;65.80;41.70;;;12.50;99.90;;;;;;4971058;28;20431;-53
2021/09/05 01:23:54;;;;;;;70.60;41.67;;;12.50;99.90;;;;;;4970145;28;20933;-47
2021/09/05 01:26:21;;;;;;;72.20;39.40;;;12.60;99.90;;;;;;4969990;28;20193;-52
2021/09/05 01:28:46;;;;;;;73.47;41.70;;;12.60;99.90;;;;;;4969216;28;20279;-48
2021/09/05 01:31:12;;;;;;;70.60;41.77;;;12.70;99.90;;;;;;4969616;28;21037;-46
2021/09/05 01:33:38;;;;;;;74.83;44.20;;;12.70;99.90;;;;;;4969876;28;20180;-48
2021/09/05 01:36:03;;;;;;;83.13;43.80;;;12.80;99.90;;;;;;4969787;28;20181;-46
2021/09/05 01:38:31;;;;;;;80.67;44.60;;;12.80;99.90;;;;;;4969159;28;20656;-51
2021/09/05 01:40:57;;;;;;;75.47;46.67;;;12.80;99.90;;;;;;4968819;28;20185;-55
2021/09/05 01:43:24;;;;;;;76.20;43.60;;;12.90;99.90;;;;;;4968447;28;20946;-52
2021/09/05 01:45:50;;;;;;;85.10;45.20;;;12.90;99.90;;;;;;4970614;28;20177;-52
2021/09/05 01:48:15;;;;;;;83.07;45.17;;;12.90;99.90;;;;;;4966818;28;20747;-52
2021/09/05 01:50:41;;;;;;;72.43;45.43;;;12.90;99.90;;;;;;4970071;28;20188;-51
2021/09/05 01:53:06;;;;;;;79.17;45.10;;;12.90;99.90;;;;;;4968373;28;20184;-49
2021/09/05 01:55:32;;;;;;;78.70;42.90;;;12.90;99.90;;;;;;4970743;28;21006;-50
2021/09/05 01:57:58;;;;;;;76.00;43.77;;;13.00;99.90;;;;;;4969565;28;20532;-53
2021/09/05 02:00:23;;;;;;;82.50;43.03;;;13.00;99.90;;;;;;4969592;28;20236;-53
2021/09/05 02:02:49;;;;;;;76.10;42.00;;;13.00;99.90;;;;;;4968579;28;20185;-52
2021/09/05 02:05:14;;;;;;;76.70;40.83;;;13.00;99.90;;;;;;4971531;28;20177;-52
2021/09/05 02:07:40;;;;;;;81.03;42.67;;;12.90;99.90;;;;;;4969698;28;20188;-50
2021/09/05 02:10:06;;;;;;;76.77;39.03;;;12.90;99.90;;;;;;4971308;28;20287;-51
2021/09/05 02:12:31;;;;;;;89.63;42.00;;;12.90;99.90;;;;;;4970712;28;20193;-51
2021/09/05 02:14:57;;;;;;;75.30;42.23;;;12.90;99.90;;;;;;4971997;28;20436;-49
2021/09/05 02:17:22;;;;;;;76.67;39.83;;;12.90;99.90;;;;;;4971164;28;20196;-50
2021/09/05 02:19:48;;;;;;;80.30;40.00;;;12.90;99.90;;;;;;4970439;28;20196;-48
2021/09/05 02:22:13;;;;;;;66.83;39.83;;;12.80;99.90;;;;;;4972224;28;20283;-52
2021/09/05 02:24:39;;;;;;;75.13;39.20;;;12.80;99.90;;;;;;4970336;28;20528;-50
2021/09/05 02:27:04;;;;;;;91.67;40.30;;;12.70;99.90;;;;;;4971923;28;20189;-49
2021/09/05 02:29:30;;;;;;;70.37;39.00;;;12.80;99.90;;;;;;4970807;28;20287;-48
2021/09/05 02:31:57;;;;;;;63.90;38.23;;;12.80;99.90;;;;;;4969915;28;20177;-52
2021/09/05 02:34:23;;;;;;;62.00;38.10;;;12.80;99.90;;;;;;4971641;28;20185;-51
2021/09/05 02:36:49;;;;;;;72.50;39.37;;;12.80;99.90;;;;;;4972749;28;20436;-49
2021/09/05 02:39:14;;;;;;;73.40;39.40;;;12.80;99.90;;;;;;4974735;28;20193;-49
2021/09/05 02:41:40;;;;;;;68.20;39.90;;;12.90;99.90;;;;;;4976204;28;20203;-49
2021/09/05 02:44:05;;;;;;;64.77;39.20;;;12.90;99.90;;;;;;4978700;28;20562;-49
2021/09/05 02:46:31;;;;;;;62.70;38.60;;;12.90;99.90;;;;;;4974983;28;20187;-52
2021/09/05 02:48:56;;;;;;;70.20;39.20;;;12.90;99.90;;;;;;4974177;28;20228;-50
2021/09/05 02:51:22;;;;;;;70.27;37.87;;;13.00;99.90;;;;;;4974425;28;20692;-54
2021/09/05 02:53:48;;;;;;;59.87;37.67;;;13.00;99.90;;;;;;4974247;28;20177;-48
2021/09/05 02:56:13;;;;;;;73.50;39.30;;;13.00;99.90;;;;;;4973841;28;20189;-50
2021/09/05 02:58:39;;;;;;;67.33;38.03;;;13.00;99.90;;;;;;4973657;28;20683;-49
2021/09/05 03:01:06;;;;;;;66.17;37.77;;;13.10;99.90;;;;;;4974215;28;20586;-51
2021/09/05 03:03:31;;;;;;;78.10;36.93;;;13.10;99.90;;;;;;4973892;28;20463;-52
2021/09/05 03:05:57;;;;;;;68.23;38.17;;;13.10;99.90;;;;;;4970534;28;20437;-52
2021/09/05 03:08:22;;;;;;;65.13;35.67;;;13.10;99.90;;;;;;4973282;28;20181;-50
2021/09/05 03:10:48;;;;;;;67.53;37.10;;;13.10;99.90;;;;;;4972578;28;20185;-49
2021/09/05 03:13:13;;;;;;;64.27;38.00;;;13.10;99.90;;;;;;4972404;28;20191;-48
2021/09/05 03:15:39;;;;;;;59.33;36.80;;;13.10;99.90;;;;;;4971822;28;20192;-48
2021/09/05 03:18:05;;;;;;;56.23;34.60;;;13.10;99.90;;;;;;4971066;28;20177;-48
2021/09/05 03:20:30;;;;;;;54.70;33.47;;;13.10;99.90;;;;;;4972333;28;20189;-47
2021/09/05 03:22:56;;;;;;;62.53;34.00;;;13.10;99.90;;;;;;4972810;28;20312;-50
2021/09/05 03:25:21;;;;;;;61.07;35.90;;;13.00;99.90;;;;;;4971696;28;20189;-50
2021/09/05 03:27:47;;;;;;;63.57;35.20;;;13.00;99.90;;;;;;4972636;28;20200;-49
2021/09/05 03:30:12;;;;;;;59.43;35.63;;;13.00;99.90;;;;;;4969829;28;21065;-51
2021/09/05 03:32:38;;;;;;;58.20;34.30;;;13.00;99.90;;;;;;4971588;28;20231;-49
2021/09/05 03:35:04;;;;;;;62.43;34.97;;;13.00;99.90;;;;;;4967677;28;20181;-50
2021/09/05 03:37:29;;;;;;;58.63;34.93;;;13.00;99.90;;;;;;4972054;28;20332;-50
2021/09/05 03:39:55;;;;;;;61.40;34.27;;;13.00;99.90;;;;;;4967391;28;20440;-51
2021/09/05 03:42:20;;;;;;;57.17;35.77;;;13.00;99.90;;;;;;4971754;28;20212;-53
2021/09/05 03:44:46;;;;;;;55.83;33.50;;;13.00;99.90;;;;;;4972759;28;20185;-50
2021/09/05 03:47:13;;;;;;;56.87;34.47;;;13.00;99.90;;;;;;4970763;28;20217;-49
2021/09/05 03:49:39;;;;;;;57.40;34.63;;;13.00;99.90;;;;;;4971608;28;20650;-49
2021/09/05 03:52:05;;;;;;;56.93;32.17;;;13.00;99.90;;;;;;4971652;28;20463;-51
2021/09/05 03:54:30;;;;;;;63.00;33.47;;;13.00;99.90;;;;;;4971639;28;20185;-51
2021/09/05 03:56:56;;;;;;;55.73;31.90;;;13.00;99.90;;;;;;4971506;28;20225;-53
2021/09/05 03:59:21;;;;;;;55.53;31.93;;;13.00;99.90;;;;;;4986404;28;20671;-51
2021/09/05 04:01:47;;;;;;;54.20;31.07;;;12.90;99.90;;;;;;4971129;28;20240;-47
2021/09/05 04:04:13;;;;;;;52.50;30.40;;;13.00;99.90;;;;;;4960276;28;20263;-50
2021/09/05 04:06:38;;;;;;;50.53;30.10;;;13.00;99.90;;;;;;4970750;28;20204;-52
2021/09/05 04:10:08;;;;;;;49.33;30.10;;;13.00;99.90;;;;;;4970621;28;20228;-50
2021/09/05 04:11:56;;;;;;;52.93;30.37;;;13.00;99.90;;;;;;4971253;28;20455;-52
2021/09/05 04:14:22;;;;;;;52.03;30.30;;;12.90;99.90;;;;;;4971280;28;20947;-48
2021/09/05 04:16:47;;;;;;;52.63;30.30;;;12.80;99.90;;;;;;4971194;28;20193;-51
2021/09/05 04:19:13;;;;;;;43.43;27.93;;;12.90;99.90;;;;;;4970361;28;20205;-53
2021/09/05 04:21:39;;;;;;;52.13;30.23;;;12.90;99.90;;;;;;4972248;28;20200;-51
2021/09/05 04:24:04;;;;;;;49.30;29.93;;;12.90;99.90;;;;;;4970164;28;20440;-50
2021/09/05 04:26:30;;;;;;;49.43;28.83;;;12.90;99.90;;;;;;4971704;28;20520;-49
2021/09/05 04:28:55;;;;;;;51.03;29.40;;;12.90;99.90;;;;;;4967040;28;20682;-50
2021/09/05 04:31:21;;;;;;;41.80;27.30;;;12.90;99.90;;;;;;4968005;28;20572;-49
2021/09/05 04:33:46;;;;;;;45.90;27.77;;;12.90;99.90;;;;;;4970996;28;20193;-52
2021/09/05 04:36:12;;;;;;;46.77;27.63;;;12.80;99.90;;;;;;4971717;28;20604;-49
2021/09/05 04:38:37;;;;;;;51.73;29.63;;;12.60;99.90;;;;;;4968144;28;20217;-48
2021/09/05 04:41:03;;;;;;;55.43;28.33;;;12.60;99.90;;;;;;4971298;28;20188;-50
2021/09/05 04:43:28;;;;;;;46.73;27.07;;;12.60;99.90;;;;;;4969711;28;23159;-51
2021/09/05 04:45:54;;;;;;;45.60;26.17;;;12.50;99.90;;;;;;4971224;28;20196;-50
2021/09/05 04:48:19;;;;;;;39.43;25.10;;;12.40;99.90;;;;;;4971396;28;20192;-53
2021/09/05 04:50:46;;;;;;;53.80;25.33;;;12.40;99.90;;;;;;4970383;28;20307;-51
2021/09/05 04:53:11;;;;;;;45.23;27.70;;;12.40;99.90;;;;;;4969279;28;20185;-49
2021/09/05 04:55:37;;;;;;;37.90;26.40;;;12.50;99.90;;;;;;4969596;28;20459;-49
2021/09/05 04:58:03;;;;;;;38.10;25.10;;;12.50;99.90;;;;;;4971116;28;20192;-50
2021/09/05 05:00:28;;;;;;;44.40;26.03;;;12.50;99.90;;;;;;4968598;28;20621;-51
2021/09/05 05:02:54;;;;;;;40.60;26.10;;;12.50;99.90;;;;;;4970996;28;20536;-50
2021/09/05 05:05:20;;;;;;;42.13;27.13;;;12.50;99.90;;;;;;4969566;28;20551;-48
2021/09/05 05:07:45;;;;;;;39.57;25.17;;;12.60;99.90;;;;;;4971171;28;20428;-54
2021/09/05 05:10:11;;;;;;;45.13;26.53;;;12.60;99.90;;;;;;4969832;28;20882;-51
2021/09/05 05:12:36;;;;;;;44.70;26.37;;;12.70;99.90;;;;;;4967576;28;20196;-52
2021/09/05 05:15:02;;;;;;;46.50;27.57;;;12.70;99.90;;;;;;4969873;28;20192;-52
2021/09/05 05:17:28;;;;;;;45.57;27.20;;;12.70;99.90;;;;;;4970091;28;20211;-48
2021/09/05 05:19:53;;;;;;;41.47;24.47;;;12.70;99.90;;;;;;4970361;28;20193;-51
2021/09/05 05:22:18;;;;;;;38.40;23.17;;;12.80;99.90;;;;;;4970187;28;20663;-50
2021/09/05 05:24:44;;;;;;;41.80;25.00;;;12.80;99.90;;;;;;4970450;28;20244;-51
2021/09/05 05:27:10;;;;;;;42.13;26.33;;;12.80;99.90;;;;;;4970248;28;20576;-49
2021/09/05 05:29:35;;;;;;;37.73;23.70;;;12.80;99.90;;;;;;4969968;28;20584;-51
2021/09/05 05:32:01;;;;;;;37.20;24.33;;;12.80;99.90;;;;;;4969607;28;20185;-50
2021/09/05 05:34:26;;;;;;;38.70;24.60;;;12.90;99.90;;;;;;4970776;28;20188;-48
2021/09/05 05:36:52;;;;;;;41.97;26.50;;;12.90;99.90;;;;;;4970047;28;20192;-46
2021/09/05 05:39:17;;;;;;;39.07;23.47;;;13.00;99.90;;;;;;4965563;28;20293;-54
2021/09/05 05:41:43;;;;;;;38.87;25.10;;;13.00;99.90;;;;;;4961435;28;20255;-52
2021/09/05 05:44:08;;;;;;;37.50;24.07;;;13.00;99.90;;;;;;4960829;28;20290;-51
2021/09/05 05:46:34;;;;;;;37.20;23.10;;;13.10;99.90;;;;;;4961479;28;20228;-53
2021/09/05 05:49:00;;;;;;;34.13;22.40;;;13.10;99.90;;;;;;4958368;28;20213;-54
2021/09/05 05:51:25;;;;;;;31.90;21.10;;;13.00;99.90;;;;;;4961294;28;20213;-52
2021/09/05 05:53:51;;;;;;;32.97;21.70;;;13.10;99.90;;;;;;4961118;28;20586;-55
2021/09/05 05:56:16;;;;;;;35.57;23.60;;;13.10;99.90;;;;;;4961553;28;20260;-52
2021/09/05 05:58:42;;;;;;;34.17;21.23;;;13.20;99.90;;;;;;4961200;28;20208;-53
2021/09/05 06:01:08;;;;;;;30.23;21.67;;;13.30;99.90;;;;;;4961217;28;20239;-54
2021/09/05 06:03:36;;;;;;;27.90;19.50;;;13.40;99.90;;;;;;4961469;28;20197;-49
2021/09/05 06:06:02;;;;;;;27.53;19.23;;;13.50;99.90;;;;;;4961769;28;20435;-53
2021/09/05 06:08:27;;;;;;;25.90;18.20;;;13.50;99.90;;;;;;4960144;28;20447;-55
2021/09/05 06:10:53;;;;;;;25.13;18.73;;;13.50;99.90;;;;;;4960642;28;20189;-52
2021/09/05 06:13:18;;;;;;;25.70;18.53;;;13.60;99.90;;;;;;4965071;28;20189;-50
2021/09/05 06:15:44;;;;;;;24.70;19.77;;;13.60;99.90;;;;;;4964108;28;20188;-51
2021/09/05 06:18:09;;;;;;;25.47;18.30;;;13.70;99.90;;;;;;4962398;28;20201;-53
2021/09/05 06:20:35;;;;;;;29.97;20.70;;;13.80;99.90;;;;;;4965161;28;20200;-49
2021/09/05 06:23:00;;;;;;;27.17;19.13;;;13.80;99.90;;;;;;4964564;28;20197;-50
2021/09/05 06:25:26;;;;;;;25.97;18.80;;;14.00;99.90;;;;;;4963821;28;20193;-52
2021/09/05 06:27:51;;;;;;;26.07;19.33;;;13.80;99.90;;;;;;4962819;28;20189;-55
2021/09/05 06:30:17;;;;;;;25.93;17.77;;;13.90;99.90;;;;;;4963954;28;20205;-50
2021/09/05 06:32:42;;;;;;;25.33;18.57;;;14.00;99.90;;;;;;4963718;28;20705;-55
2021/09/05 06:35:08;;;;;;;26.00;17.77;;;14.20;99.90;;;;;;4964335;28;20180;-54
2021/09/05 06:37:34;;;;;;;22.13;16.60;;;14.30;99.90;;;;;;4962992;28;20272;-49
2021/09/05 06:39:59;;;;;;;25.03;17.17;;;14.30;99.90;;;;;;4963836;28;20205;-53
2021/09/05 06:42:25;;;;;;;27.70;17.63;;;14.50;99.90;;;;;;4965271;28;20184;-49
2021/09/05 06:44:50;;;;;;;24.97;17.37;;;14.60;99.90;;;;;;4964665;28;20197;-49
2021/09/05 06:47:16;;;;;;;23.83;16.97;;;14.70;99.90;;;;;;4962699;28;20276;-54
2021/09/05 06:49:41;;;;;;;23.07;17.50;;;14.70;99.90;;;;;;4963750;28;20220;-53
2021/09/05 06:52:07;;;;;;;23.40;16.43;;;14.70;99.90;;;;;;4962360;28;20195;-49
2021/09/05 06:54:32;;;;;;;27.93;16.37;;;14.90;99.90;;;;;;4963382;28;20296;-47
2021/09/05 06:56:58;;;;;;;25.80;16.97;;;15.00;99.90;;;;;;4964154;28;20181;-51
2021/09/05 06:59:23;;;;;;;22.20;16.00;;;14.90;99.90;;;;;;4961783;28;20655;-51
2021/09/05 07:01:49;;;;;;;24.03;16.87;;;15.10;99.90;;;;;;4957995;28;21302;-53
2021/09/05 07:04:14;;;;;;;23.00;16.60;;;15.20;99.90;;;;;;4963338;28;21907;-50
2021/09/05 07:06:40;;;;;;;23.73;16.60;;;15.30;99.90;;;;;;4963903;28;20199;-53
2021/09/05 07:09:06;;;;;;;24.30;16.70;;;15.30;99.90;;;;;;4963835;28;20287;-49
2021/09/05 07:11:31;;;;;;;24.40;16.37;;;15.40;99.90;;;;;;4964692;28;20177;-54
2021/09/05 07:13:57;;;;;;;22.87;16.20;;;15.50;99.90;;;;;;4962791;28;20186;-51
2021/09/05 07:16:22;;;;;;;25.07;18.53;;;15.60;99.90;;;;;;4963678;28;20253;-51
2021/09/05 07:18:48;;;;;;;22.33;15.97;;;15.70;99.90;;;;;;4961665;28;20627;-51
2021/09/05 07:21:13;;;;;;;24.63;18.07;;;15.60;99.90;;;;;;4964271;28;20689;-52
2021/09/05 07:23:39;;;;;;;26.07;18.13;;;15.50;99.90;;;;;;4960980;28;20566;-54
2021/09/05 07:26:04;;;;;;;23.90;16.57;;;15.30;99.90;;;;;;4962125;28;21025;-53
2021/09/05 07:28:32;;;;;;;26.50;18.07;;;15.40;99.90;;;;;;4963735;28;20539;-54
2021/09/05 07:31:02;;;;;;;26.60;18.00;;;15.70;99.90;;;;;;4960166;28;20192;-54
2021/09/05 07:33:27;;;;;;;27.00;18.73;;;15.40;99.90;;;;;;4953910;28;20460;-53
2021/09/05 07:35:53;;;;;;;25.17;17.43;;;15.40;99.90;;;;;;4960435;28;20448;-52
2021/09/05 07:38:19;;;;;;;27.00;19.77;;;15.50;99.90;;;;;;4960037;28;20204;-53
2021/09/05 07:40:45;;;;;;;22.47;17.33;;;15.40;99.90;;;;;;4960375;28;20300;-52
2021/09/05 07:43:10;;;;;;;27.40;17.50;;;15.50;99.90;;;;;;4955950;28;20440;-52
2021/09/05 07:45:36;;;;;;;23.67;17.03;;;15.60;99.90;;;;;;4959188;28;20604;-51
2021/09/05 07:48:01;;;;;;;23.83;17.37;;;15.70;99.90;;;;;;4960543;28;20185;-49
2021/09/05 07:50:27;;;;;;;23.57;17.10;;;15.70;99.90;;;;;;4958359;28;20231;-51
2021/09/05 07:52:53;;;;;;;25.00;17.37;;;15.90;99.90;;;;;;4960507;28;20545;-53
2021/09/05 07:55:18;;;;;;;22.90;16.87;;;16.00;99.90;;;;;;4958833;28;20185;-51
2021/09/05 07:57:44;;;;;;;20.63;16.43;;;16.20;99.90;;;;;;4961494;28;20573;-51
2021/09/05 08:00:10;;;;;;;19.60;16.87;;;16.20;99.90;;;;;;4959383;28;21175;-48
2021/09/05 08:02:35;;;;;;;22.23;16.10;;;16.10;99.90;;;;;;4961032;28;20201;-50
2021/09/05 08:05:01;;;;;;;20.07;16.10;;;16.10;99.90;;;;;;4960594;28;20441;-51
2021/09/05 08:07:26;;;;;;;20.90;15.33;;;16.20;99.90;;;;;;4961138;28;20725;-54
2021/09/05 08:09:52;;;;;;;19.00;15.13;;;16.30;99.90;;;;;;4960891;28;20347;-51
2021/09/05 08:12:17;;;;;;;18.20;15.43;;;16.20;99.90;;;;;;4962680;28;20259;-52
2021/09/05 08:14:43;;;;;;;19.57;15.20;;;16.10;99.90;;;;;;4961778;28;20189;-53
2021/09/05 08:17:08;;;;;;;18.47;15.60;;;16.30;99.90;;;;;;4961445;28;20823;-55
2021/09/05 08:19:35;;;;;;;20.67;15.63;;;;;;;;;;4961414;28;20189;-51
2021/09/05 08:22:00;;;;;;;;;;;16.70;99.90;;;;;;4962909;28;21045;-51
2021/09/05 08:24:26;;;;;;;;;;;16.90;99.90;;;;;;4962530;28;19914;-51
2021/09/05 08:26:51;;;;;;;;;;;16.80;99.90;;;;;;4961992;28;20747;-55
2021/09/05 08:29:17;;;;;;;;;;;17.10;99.90;;;;;;4960330;28;19914;-52
2021/09/05 08:31:42;;;;;;;;;;;17.40;99.90;;;;;;4956726;28;19925;-49
2021/09/05 08:34:08;;;;;;;;;;;17.30;99.90;;;;;;4947127;28;20402;-55
2021/09/05 08:36:33;;;;;;;;;;;17.40;99.90;;;;;;4956880;28;20273;-51
2021/09/05 08:38:59;;;;;;;;;;;17.60;99.90;;;;;;4962108;28;19992;-56
2021/09/05 08:41:25;;;;;;;;;;;18.00;99.90;;;;;;4960681;28;19914;-55
2021/09/05 08:43:50;;;;;;;;;;;18.50;99.90;;;;;;4958506;28;19968;-53
2021/09/05 08:46:16;;;;;;;;;;;19.00;99.90;;;;;;4961196;28;19921;-51
2021/09/05 08:48:42;;;;;;;;;;;19.40;99.90;;;;;;4959366;28;20919;-52
2021/09/05 08:51:08;;;;;;;;;;;19.90;99.90;;;;;;4959722;28;19997;-54
2021/09/05 08:53:34;;;;;;;;;;;20.60;99.90;;;;;;4955821;28;19906;-57
2021/09/05 08:55:59;;;;;;;;;;;21.10;99.90;;;;;;4956543;28;19920;-56
2021/09/05 08:58:25;;;;;;;;;;;21.70;99.90;;;;;;4965256;28;19918;-53
2021/09/05 09:00:50;;;;;;;;;;;22.40;99.90;;;;;;4966931;28;19924;-50
2021/09/05 09:03:20;;;;;;;;;;;23.00;99.90;;;;;;4970520;28;19941;-50
2021/09/05 09:05:49;;;;;;;;;;;23.60;99.50;;;;;;4970112;28;19945;-52
2021/09/05 09:08:15;;;;;;;;;;;23.60;98.90;;;;;;4971765;28;19914;-51
2021/09/05 09:11:02;;;;;;;;;;;24.20;97.80;;;;;;4976402;28;19918;-54
2021/09/05 09:13:27;;;;;;;;;;;24.40;97.60;;;;;;4974590;28;19957;-55
2021/09/05 09:15:53;;;;;;;;;;;24.80;96.90;;;;;;4977083;28;19914;-52
2021/09/05 09:18:26;;;;;;;;;;;25.60;95.10;;;;;;4967833;28;19913;-54
2021/09/05 09:20:54;;;;;;;;;;;26.20;92.90;;;;;;4976667;28;20004;-53
2021/09/05 09:23:21;;;;;;;;;;;26.40;91.30;;;;;;4972135;28;19956;-50
2021/09/05 09:25:57;;;;;;;;;;;26.70;90.10;;;;;;4969795;28;19909;-54
2021/09/05 09:28:24;;;;;;;;;;;27.10;89.80;;;;;;4968773;28;19921;-52
2021/09/05 09:30:49;;;;;;;;;;;27.60;85.40;;;;;;4962514;28;19914;-51
2021/09/05 09:33:18;;;;;;;;;;;28.00;84.10;;;;;;4969067;28;19986;-55
2021/09/05 09:35:48;;;;;;;;;;;28.50;79.50;;;;;;4968603;28;20392;-54
2021/09/05 09:38:15;;;;;;;;;;;28.50;78.40;;;;;;4966229;28;20416;-49
2021/09/05 09:40:40;;;;;;;;;;;28.80;77.00;;;;;;4961000;28;20275;-52
2021/09/05 09:43:35;;;;;;;;;;;29.20;73.50;;;;;;4968717;28;19917;-55
2021/09/05 09:46:13;;;;;;;;;;;29.00;74.30;;;;;;4960485;28;19914;-55
2021/09/05 09:48:46;;;;;;;;;;;28.80;74.00;;;;;;4968830;28;19965;-50
2021/09/05 09:51:12;;;;;;;;;;;29.00;74.90;;;;;;4965687;28;19916;-54
2021/09/05 09:53:39;;;;;;;;;;;29.40;70.60;;;;;;4969565;28;19978;-53
2021/09/05 09:56:05;;;;;;;;;;;29.70;69.50;;;;;;4966993;28;19968;-55
2021/09/05 09:58:30;;;;;;;;;;;30.30;69.30;;;;;;4969231;28;19942;-48
2021/09/05 10:00:56;;;;;;;;;;;30.70;64.00;;;;;;4966965;28;19914;-54
2021/09/05 10:03:23;;;;;;;;;;;30.60;99.90;;;;;;4970020;28;19980;-55
2021/09/05 10:05:49;;;;;;;;;;;30.50;99.90;;;;;;4967633;28;19921;-51
2021/09/05 10:08:16;;;;;;;;;;;30.20;99.90;;;;;;4977770;28;19984;-53
2021/09/05 10:10:42;;;;;;;;;;;30.20;99.90;;;;;;4969790;28;19976;-54
2021/09/05 10:13:08;;;;;;;;;;;30.40;99.90;;;;;;4976777;28;20409;-52
2021/09/05 10:15:34;;;;;;;;;;;31.30;99.90;;;;;;4970283;28;19961;-51
2021/09/05 10:17:59;;;;;;;;;;;31.60;99.90;;;;;;4977308;28;20607;-54
2021/09/05 10:20:25;;;;;;;;;;;32.10;99.90;;;;;;4971266;28;19964;-52
2021/09/05 10:22:51;;;;;;;;;;;32.10;99.90;;;;;;4976530;28;20299;-55
2021/09/05 10:25:17;;;;;;;;;;;32.50;99.90;;;;;;4975494;28;19951;-54
2021/09/05 10:27:46;;;;;;;;;;;33.10;99.90;;;;;;4979558;28;19910;-54
2021/09/05 10:30:12;;;;;;;;;;;32.60;99.90;;;;;;4963600;28;20391;-54
2021/09/05 10:32:41;;;;;;;;;;;32.90;99.90;;;;;;4964751;28;19918;-51
2021/09/05 10:35:39;;;;;;;;;;;33.40;99.90;;;;;;4968998;28;20896;-53
2021/09/05 10:38:07;;;;;;;;;;;33.30;99.90;;;;;;4942469;28;19918;-53
2021/09/05 10:40:40;;;;;;;;;;;33.40;99.90;;;;;;4969733;28;19914;-55
2021/09/05 10:43:06;;;;;;;;;;;32.90;99.90;;;;;;4974910;28;19910;-55
2021/09/05 10:45:32;;;;;;;;;;;33.20;99.90;;;;;;4969637;28;19960;-50
2021/09/05 10:47:58;;;;;;;;;;;34.20;99.90;;;;;;4972588;28;19906;-49
2021/09/05 10:50:29;;;;;;;;;;;34.70;99.90;;;;;;4963496;28;20285;-54
2021/09/05 10:52:55;;;;;;;;;;;34.60;99.90;;;;;;4964236;28;19969;-50
2021/09/05 10:55:20;;;;;;;;;;;34.30;99.90;;;;;;4973552;28;19914;-52
2021/09/05 10:57:46;;;;;;;;;;;34.60;99.90;;;;;;4975657;28;19921;-54
2021/09/05 11:00:12;;;;;;;;;;;34.60;99.90;;;;;;4967048;28;20208;-51
2021/09/05 11:02:57;;;;;;;;;;;34.70;99.90;;;;;;4970788;28;20274;-52
2021/09/05 11:05:46;;;;;;;;;;;34.90;99.90;;;;;;4965717;28;19921;-53
2021/09/05 11:08:29;;;;;;;;;;;35.50;99.90;;;;;;4957581;28;19910;-51
2021/09/05 11:10:55;;;;;;;;;;;35.70;99.90;;;;;;4959440;28;19922;-53
2021/09/05 11:13:46;;;;;;;;;;;35.30;99.90;;;;;;4958683;28;19921;-59
2021/09/05 11:16:16;;;;;;;;;;;35.00;99.90;;;;;;4971389;28;19910;-51
2021/09/05 11:18:42;;;;;;;;;;;35.50;99.90;;;;;;4973483;28;19906;-51
2021/09/05 11:21:21;;;;;;;;;;;35.90;99.90;;;;;;4972065;28;19906;-51
2021/09/05 11:23:47;;;;;;;;;;;36.20;99.90;;;;;;4968673;28;20142;-52
2021/09/05 11:26:12;;;;;;;;;;;36.20;99.90;;;;;;4984673;28;19960;-52
2021/09/05 11:28:38;;;;;;;;;;;36.70;99.90;;;;;;4971273;28;20004;-53
2021/09/05 11:31:04;;;;;;;;;;;36.30;99.90;;;;;;4973407;28;19909;-52
2021/09/05 11:33:29;;;;;;;;;;;36.20;99.90;;;;;;4973417;28;19906;-51
2021/09/05 11:35:57;;;;;;;;;;;36.20;99.90;;;;;;4973762;28;19910;-50
2021/09/05 11:38:23;;;;;;;;;;;36.00;99.90;;;;;;4972835;28;19953;-50
2021/09/05 11:40:50;;;;;;;;;;;36.00;99.90;;;;;;4972149;28;19993;-54
2021/09/05 11:43:33;;;;;;;;;;;36.30;99.90;;;;;;4974302;28;19906;-53
2021/09/05 11:45:58;;;;;;;;;;;36.40;99.90;;;;;;4973929;28;19947;-53
2021/09/05 11:48:27;;;;;;;;;;;36.20;99.90;;;;;;4974373;28;19906;-53
2021/09/05 11:50:59;;;;;;;;;;;36.50;99.90;;;;;;4972860;28;20345;-53
2021/09/05 11:53:24;;;;;;;;;;;36.50;99.90;;;;;;4971994;28;19910;-54
2021/09/05 11:55:53;;;;;;;;;;;36.40;99.90;;;;;;4972341;28;20329;-51
2021/09/05 11:58:18;;;;;;;;;;;36.80;99.90;;;;;;4972356;28;19910;-53
2021/09/05 12:00:44;;;;;;;;;;;36.40;99.90;;;;;;4973464;28;20439;-55
2021/09/05 12:03:12;;;;;;;;;;;36.20;99.90;;;;;;4972287;28;20272;-54
2021/09/05 12:05:38;;;;;;;;;;;36.70;99.90;;;;;;4974220;28;19918;-50
2021/09/05 12:08:04;;;;;;;;;;;36.40;99.90;;;;;;4973735;28;19940;-54
2021/09/05 12:10:30;;;;;;;;;;;36.40;99.90;;;;;;4974464;28;20305;-54
2021/09/05 12:13:06;;;;;;;;;;;36.60;99.90;;;;;;4973534;28;20001;-55
2021/09/05 12:15:33;;;;;;;;;;;36.80;99.90;;;;;;4973249;28;19906;-52
2021/09/05 12:17:58;;;;;;;;;;;36.70;99.90;;;;;;4989359;28;19949;-53
2021/09/05 12:20:24;;;;;;;;;;;36.60;99.90;;;;;;4975433;28;20392;-52
2021/09/05 12:22:50;;;;;;;;;;;36.50;99.90;;;;;;4975281;28;19950;-53
2021/09/05 12:25:19;;;;;;;;;;;36.60;99.90;;;;;;4974013;28;19913;-53
2021/09/05 12:28:03;;;;;;;;;;;36.40;99.90;;;;;;4973598;28;19913;-49
2021/09/05 12:30:33;;;;;;;;;;;36.90;99.90;;;;;;4972630;28;19929;-49
2021/09/05 12:33:03;;;;;;;;;;;36.90;99.90;;;;;;4973030;28;19968;-51
2021/09/05 12:35:28;;;;;;;;;;;37.10;99.90;;;;;;4974477;28;19910;-52
2021/09/05 12:38:23;;;;;;;;;;;36.80;99.90;;;;;;4974571;28;20270;-52
2021/09/05 12:40:49;;;;;;;;;;;36.90;99.90;;;;;;4956000;28;19914;-53
2021/09/05 12:43:14;;;;;;;;;;;36.50;99.90;;;;;;4972969;28;19913;-54
2021/09/05 12:45:52;;;;;;;;;;;36.30;99.90;;;;;;4972155;28;19914;-54
2021/09/05 12:48:23;;;;;;;;;;;36.20;99.90;;;;;;4971391;28;20344;-55
2021/09/05 12:51:02;;;;;;;;;;;36.30;99.90;;;;;;4972773;28;19984;-52
2021/09/05 12:53:28;;;;;;;;;;;36.40;99.90;;;;;;4971893;28;19906;-52
2021/09/05 12:55:53;;;;;;;;;;;36.30;99.90;;;;;;4970673;28;19914;-50
2021/09/05 12:58:19;;;;;;;;;;;36.60;99.90;;;;;;4972253;28;19909;-50
2021/09/05 13:00:44;;;;;;;;;;;35.80;99.90;;;;;;4968979;28;20254;-55